createdAt,value
2022-08-25T00:00:56.244Z,-23803.13
2022-08-25T00:03:44.863Z,-23803.59
2022-08-25T00:06:32.593Z,-23809.91
2022-08-25T00:09:22.225Z,-23798.72
2022-08-25T00:12:09.525Z,-23813.78
2022-08-25T00:14:56.482Z,-23819.13
2022-08-25T00:17:43.587Z,-23818.16
2022-08-25T00:20:30.893Z,-23818.16
2022-08-25T00:23:19.105Z,-23818.16
2022-08-25T00:26:07.341Z,-23817.44
2022-08-25T00:29:01.276Z,-23821.06
2022-08-25T00:31:49.174Z,-23822.03
2022-08-25T00:34:38.296Z,-23817.19
2022-08-25T00:37:25.077Z,-23815.25
2022-08-25T00:40:12.807Z,-23807.72
2022-08-25T00:43:00.575Z,-23800.94
2022-08-25T00:45:47.657Z,-23796.06
2022-08-25T00:48:34.729Z,-23801.41
2022-08-25T00:51:30.290Z,-23807.97
2022-08-25T00:54:29.741Z,-23810.41
2022-08-25T00:57:22.148Z,-23812.59
2022-08-25T01:00:29.466Z,-23803.59
2022-08-25T01:03:19.305Z,-23793.41
2022-08-25T01:06:08.021Z,-23789.53
2022-08-25T01:08:54.996Z,-23789.53
2022-08-25T01:11:44.445Z,-23793.41
2022-08-25T01:14:32.705Z,-23791.69
2022-08-25T01:17:21.205Z,-23793.88
2022-08-25T01:20:08.736Z,-23784.19
2022-08-25T01:22:56.639Z,-23786.13
2022-08-25T01:25:48.433Z,-23789.28
2022-08-25T01:28:36.617Z,-23781.28
2022-08-25T01:31:24.467Z,-23784.66
2022-08-25T01:34:12.490Z,-23796.81
2022-08-25T01:37:01.141Z,-23799.72
2022-08-25T01:39:48.247Z,-23809.91
2022-08-25T01:42:54.064Z,-23799.47
2022-08-25T01:45:44.337Z,-23807.97
2022-08-25T01:48:32.977Z,-23809.91
2022-08-25T01:51:23.761Z,-23797.28
2022-08-25T01:54:10.884Z,-23793.41
2022-08-25T01:56:58.793Z,-23786.13
2022-08-25T01:59:46.263Z,-23781.75
2022-08-25T02:02:33.283Z,-23781.50
2022-08-25T02:05:23.488Z,-23779.31
2022-08-25T02:08:11.714Z,-23789.03
2022-08-25T02:10:58.769Z,-23790.72
2022-08-25T02:13:45.823Z,-23791.47
2022-08-25T02:16:36.552Z,-23800.19
2022-08-25T02:19:25.946Z,-23797.78
2022-08-25T02:22:13.000Z,-23791.94
2022-08-25T02:52:58.047Z,-23754.56
2022-08-25T02:55:45.263Z,-23753.34
2022-08-25T02:58:32.234Z,-23748.75
2022-08-25T03:01:19.365Z,-23749.72
2022-08-25T03:04:07.292Z,-23747.78
2022-08-25T03:06:54.213Z,-23749.97
2022-08-25T03:09:41.199Z,-23746.56
2022-08-25T03:12:28.197Z,-23726.41
2022-08-25T03:15:17.063Z,-23746.56
2022-08-25T03:18:05.499Z,-23748.25
2022-08-25T03:20:55.808Z,-23751.41
2022-08-25T03:23:43.295Z,-23749.72
2022-08-25T03:26:49.020Z,-23744.38
2022-08-25T03:29:35.943Z,-23744.63
2022-08-25T03:32:23.996Z,-23751.41
2022-08-25T03:35:11.085Z,-23747.28
2022-08-25T03:37:59.962Z,-23748.25
2022-08-25T03:40:46.986Z,-23746.31
2022-08-25T03:43:34.038Z,-23754.09
2022-08-25T03:46:27.557Z,-23741.97
2022-08-25T03:49:17.854Z,-23730.53
2022-08-25T03:52:04.852Z,-23725.94
2022-08-25T03:54:52.414Z,-23725.44
2022-08-25T03:57:39.579Z,-23725.94
2022-08-25T04:00:26.776Z,-23714.78
2022-08-25T04:03:13.747Z,-23713.56
2022-08-25T04:06:05.856Z,-23709.91
2022-08-25T04:08:52.877Z,-23694.38
2022-08-25T04:11:40.188Z,-23697.78
2022-08-25T04:14:29.692Z,-23703.59
2022-08-25T04:17:17.643Z,-23713.31
2022-08-25T04:20:05.114Z,-23728.84
2022-08-25T04:22:52.143Z,-23723.03
2022-08-25T04:25:46.290Z,-23715.25
2022-08-25T04:28:33.353Z,-23711.38
2022-08-25T04:31:22.008Z,-23703.84
2022-08-25T04:34:28.858Z,-23715.00
2022-08-25T04:37:16.187Z,-23715.00
2022-08-25T04:40:04.795Z,-23711.63
2022-08-25T04:42:51.964Z,-23700.94
2022-08-25T04:45:40.021Z,-23695.34
2022-08-25T04:48:27.067Z,-23704.09
2022-08-25T04:51:19.020Z,-23703.59
2022-08-25T04:54:08.921Z,-23688.56
2022-08-25T04:56:58.262Z,-23712.34
2022-08-25T04:59:46.020Z,-23711.13
2022-08-25T05:02:33.075Z,-23719.38
2022-08-25T05:05:20.144Z,-23720.13
2022-08-25T05:08:07.319Z,-23719.38
2022-08-25T05:10:56.692Z,-23715.00
2022-08-25T05:13:51.345Z,-23712.81
2022-08-25T05:16:39.284Z,-23710.66
2022-08-25T05:19:26.880Z,-23711.63
2022-08-25T05:22:13.850Z,-23696.81
2022-08-25T05:25:00.818Z,-23698.28
2022-08-25T05:27:47.888Z,-23712.81
2022-08-25T05:30:38.428Z,-23713.06
2022-08-25T05:33:26.020Z,-23718.66
2022-08-25T05:36:18.396Z,-23734.66
2022-08-25T05:39:05.536Z,-23745.09
2022-08-25T05:41:52.611Z,-23736.38
2022-08-25T05:44:39.554Z,-23743.66
2022-08-25T05:47:26.767Z,-23749.97
2022-08-25T05:50:13.776Z,-23753.13
2022-08-25T05:53:00.813Z,-23756.28
2022-08-25T05:55:47.807Z,-23756.03
2022-08-25T05:58:36.577Z,-23747.28
2022-08-25T06:01:47.755Z,-23757.97
2022-08-25T06:04:37.550Z,-23746.09
2022-08-25T06:07:27.995Z,-23760.16
2022-08-25T06:10:15.803Z,-23767.69
2022-08-25T06:13:03.714Z,-23764.75
2022-08-25T06:15:58.546Z,-23769.63
2022-08-25T06:18:45.881Z,-23763.31
2022-08-25T06:21:32.927Z,-23775.44
2022-08-25T06:24:21.686Z,-23782.25
2022-08-25T06:27:08.671Z,-23786.38
2022-08-25T06:29:56.085Z,-23788.78
2022-08-25T06:32:44.750Z,-23794.38
2022-08-25T06:35:31.783Z,-23793.88
2022-08-25T06:38:21.911Z,-23792.94
2022-08-25T06:41:12.777Z,-23809.41
2022-08-25T06:44:05.375Z,-23805.06
2022-08-25T06:46:52.869Z,-23812.81
2022-08-25T06:49:40.346Z,-23793.41
2022-08-25T06:52:29.212Z,-23807.25
2022-08-25T06:55:16.608Z,-23808.47
2022-08-25T06:58:05.521Z,-23820.09
2022-08-25T07:00:57.265Z,-23825.44
2022-08-25T07:03:44.558Z,-23824.22
2022-08-25T07:06:35.674Z,-23824.00
2022-08-25T07:09:22.563Z,-23837.81
2022-08-25T07:12:09.756Z,-23834.91
2022-08-25T07:15:17.125Z,-23819.63
2022-08-25T07:18:04.017Z,-23830.06
2022-08-25T07:20:53.990Z,-23821.06
2022-08-25T07:23:42.201Z,-23832.47
2022-08-25T07:26:37.784Z,-23843.41
2022-08-25T07:29:32.141Z,-23851.19
2022-08-25T07:32:19.927Z,-23854.56
2022-08-25T07:35:19.142Z,-23857.50
2022-08-25T07:38:09.096Z,-23845.59
2022-08-25T07:41:03.941Z,-23855.78
2022-08-25T07:43:51.133Z,-23863.78
2022-08-25T07:46:38.925Z,-23867.19
2022-08-25T07:49:26.795Z,-23878.63
2022-08-25T07:52:23.077Z,-23868.66
2022-08-25T07:55:11.166Z,-23875.44
2022-08-25T07:57:59.985Z,-23881.28
2022-08-25T08:00:49.429Z,-23888.81
2022-08-25T08:03:51.224Z,-23893.44
2022-08-25T08:06:39.338Z,-23891.22
2022-08-25T08:09:26.465Z,-23894.38
2022-08-25T08:12:13.517Z,-23892.69
2022-08-25T08:15:02.767Z,-23899.50
2022-08-25T08:17:49.946Z,-23907.00
2022-08-25T08:20:42.359Z,-23917.69
2022-08-25T08:23:30.579Z,-23921.59
2022-08-25T08:26:18.355Z,-23919.63
2022-08-25T08:29:05.373Z,-23925.94
2022-08-25T08:31:52.665Z,-23933.25
2022-08-25T08:34:41.624Z,-23931.31
2022-08-25T08:37:28.883Z,-23935.19
2022-08-25T08:40:19.769Z,-23936.88
2022-08-25T08:43:19.113Z,-23943.44
2022-08-25T08:46:07.602Z,-23943.94
2022-08-25T08:49:04.320Z,-23947.31
2022-08-25T08:51:59.606Z,-23949.03
2022-08-25T08:54:56.229Z,-23956.56
2022-08-25T08:57:46.456Z,-23962.88
2022-08-25T09:00:40.603Z,-23964.31
2022-08-25T09:03:34.942Z,-23976.47
2022-08-25T09:06:30.766Z,-23969.19
2022-08-25T09:09:30.695Z,-23978.41
2022-08-25T09:12:34.898Z,-23983.25
2022-08-25T09:15:58.156Z,-23988.13
2022-08-25T09:18:54.534Z,-23988.13
2022-08-25T09:22:34.903Z,-23987.88
2022-08-25T09:25:53.336Z,-23982.03
2022-08-25T09:28:55.407Z,-23977.44
2022-08-25T09:31:43.076Z,-23996.13
2022-08-25T09:34:33.852Z,-23990.31
2022-08-25T09:37:23.697Z,-24003.19
2022-08-25T09:40:12.157Z,-24007.53
2022-08-25T09:43:01.581Z,-24015.56
2022-08-25T09:46:10.832Z,-24020.66
2022-08-25T09:49:10.775Z,-24027.94
2022-08-25T09:52:26.848Z,-24040.09
2022-08-25T09:55:14.663Z,-24044.47
2022-08-25T09:58:15.612Z,-24052.97
2022-08-25T10:01:18.298Z,-24048.34
2022-08-25T10:04:17.707Z,-24059.53
2022-08-25T10:07:20.394Z,-24055.63
2022-08-25T10:10:38.291Z,-24061.72
2022-08-25T10:13:45.729Z,-24075.81
2022-08-25T10:16:36.242Z,-24069.47
2022-08-25T10:19:27.382Z,-24069.72
2022-08-25T10:22:32.562Z,-24079.94
2022-08-25T10:25:28.490Z,-24080.91
2022-08-25T10:28:29.630Z,-24083.81
2022-08-25T10:31:26.074Z,-24091.84
2022-08-25T10:34:29.119Z,-24090.38
2022-08-25T10:37:40.449Z,-24097.19
2022-08-25T10:40:57.298Z,-24100.09
2022-08-25T10:43:53.946Z,-24102.28
2022-08-25T10:47:06.794Z,-24107.13
2022-08-25T10:50:23.830Z,-24102.78
2022-08-25T10:53:22.990Z,-24110.03
2022-08-25T10:56:21.095Z,-24114.44
2022-08-25T10:59:30.689Z,-24119.03
2022-08-25T11:02:52.340Z,-24121.72
2022-08-25T11:05:57.385Z,-24133.38
2022-08-25T11:08:50.229Z,-24137.75
2022-08-25T11:11:59.241Z,-24137.75
2022-08-25T11:15:00.007Z,-24146.00
2022-08-25T11:17:55.464Z,-24154.75
2022-08-25T11:20:49.771Z,-24157.19
2022-08-25T11:23:44.223Z,-24159.59
2022-08-25T11:26:37.094Z,-24159.84
2022-08-25T11:29:31.382Z,-24164.00
2022-08-25T11:32:21.110Z,-24166.91
2022-08-25T11:35:12.110Z,-24175.16
2022-08-25T11:38:27.665Z,-24180.25
2022-08-25T11:41:38.269Z,-24168.34
2022-08-25T11:44:54.984Z,-24179.53
2022-08-25T11:48:07.628Z,-24184.88
2022-08-25T11:50:56.726Z,-24187.78
2022-08-25T11:53:44.804Z,-24199.47
2022-08-25T11:56:36.429Z,-24199.47
2022-08-25T11:59:51.860Z,-24199.47
2022-08-25T12:02:46.015Z,-24201.41
2022-08-25T12:06:13.143Z,-24207.72
2022-08-25T12:09:00.158Z,-24201.88
2022-08-25T12:11:55.526Z,-24201.88
2022-08-25T12:14:43.312Z,-24206.75
2022-08-25T12:17:39.428Z,-24214.28
2022-08-25T12:20:54.835Z,-24218.41
2022-08-25T12:24:15.611Z,-24219.84
2022-08-25T12:27:06.747Z,-24222.06
2022-08-25T12:30:22.502Z,-24231.78
2022-08-25T12:33:33.120Z,-24231.78
2022-08-25T12:36:29.227Z,-24229.09
2022-08-25T12:39:28.624Z,-24239.53
2022-08-25T12:42:37.841Z,-24247.31
2022-08-25T12:45:38.983Z,-24245.13
2022-08-25T12:48:28.941Z,-24250.47
2022-08-25T12:51:21.313Z,-24252.66
2022-08-25T12:54:24.247Z,-24258.72
2022-08-25T12:57:46.108Z,-24262.63
2022-08-25T13:00:48.343Z,-24256.31
2022-08-25T13:04:09.335Z,-24260.44
2022-08-25T13:07:10.878Z,-24269.44
2022-08-25T13:10:12.026Z,-24270.88
2022-08-25T13:13:13.938Z,-24270.88
2022-08-25T13:16:05.038Z,-24280.13
2022-08-25T13:18:52.463Z,-24275.50
2022-08-25T13:21:42.893Z,-24283.03
2022-08-25T13:24:40.483Z,-24285.47
2022-08-25T13:27:28.353Z,-24283.50
2022-08-25T13:30:35.994Z,-24286.44
2022-08-25T13:33:24.191Z,-24283.75
2022-08-25T13:36:35.662Z,-24289.13
2022-08-25T13:39:45.204Z,-24293.97
2022-08-25T13:42:32.886Z,-24287.91
2022-08-25T13:45:24.008Z,-24300.28
2022-08-25T13:48:20.889Z,-24300.53
2022-08-25T13:51:21.537Z,-24305.63
2022-08-25T13:54:25.482Z,-24313.16
2022-08-25T13:57:23.032Z,-24314.63
2022-08-25T14:00:12.516Z,-24320.94
2022-08-25T14:03:02.477Z,-24310.72
2022-08-25T14:06:06.527Z,-24324.81
2022-08-25T14:08:59.343Z,-24327.03
2022-08-25T14:11:55.332Z,-24325.31
2022-08-25T14:14:42.843Z,-24303.19
2022-08-25T14:17:39.761Z,-24309.28
2022-08-25T14:20:31.205Z,-24313.41
2022-08-25T14:23:22.229Z,-24301.97
2022-08-25T14:26:09.300Z,-24306.13
2022-08-25T14:28:56.588Z,-24313.88
2022-08-25T14:31:45.824Z,-24323.38
2022-08-25T14:34:36.755Z,-24326.78
2022-08-25T14:37:25.490Z,-24323.13
2022-08-25T14:40:15.620Z,-24326.28
2022-08-25T14:43:02.857Z,-24335.03
2022-08-25T14:45:51.011Z,-24334.53
2022-08-25T14:48:45.597Z,-24330.41
2022-08-25T14:51:33.752Z,-24326.53
2022-08-25T14:54:26.824Z,-24334.31
2022-08-25T14:57:14.229Z,-24324.81
2022-08-25T15:00:02.168Z,-24314.38
2022-08-25T15:02:51.620Z,-24313.16
2022-08-25T15:05:40.821Z,-24305.88
2022-08-25T15:08:46.678Z,-24306.84
2022-08-25T15:11:35.443Z,-24304.91
2022-08-25T15:14:28.922Z,-24303.44
2022-08-25T15:17:20.760Z,-24288.38
2022-08-25T15:20:08.728Z,-24287.91
2022-08-25T15:22:58.433Z,-24285.94
2022-08-25T15:25:52.993Z,-24286.19
2022-08-25T15:28:43.474Z,-24282.06
2022-08-25T15:31:31.443Z,-24282.06
2022-08-25T15:34:19.579Z,-24279.38
2022-08-25T15:37:16.655Z,-24275.50
2022-08-25T15:40:04.971Z,-24273.81
2022-08-25T15:42:54.741Z,-24259.47
2022-08-25T15:45:43.191Z,-24190.94
2022-08-25T15:48:33.701Z,-23961.66
2022-08-25T15:51:20.926Z,-23866.47
2022-08-25T15:54:07.936Z,-23852.16
2022-08-25T15:56:57.069Z,-23868.16
2022-08-25T15:59:44.130Z,-23871.56
2022-08-25T16:02:33.485Z,-23874.47
2022-08-25T16:05:25.650Z,-23869.13
2022-08-25T16:08:17.470Z,-23873.03
2022-08-25T16:14:07.582Z,-23879.34
2022-08-25T16:16:58.265Z,-23883.94
2022-08-25T16:19:47.450Z,-23865.25
2022-08-25T16:22:34.417Z,-23870.13
2022-08-25T16:25:21.836Z,-23885.41
2022-08-25T16:28:13.195Z,-23898.03
2022-08-25T16:31:00.880Z,-23903.13
2022-08-25T16:33:49.035Z,-23905.31
2022-08-25T16:36:36.955Z,-23907.50
2022-08-25T16:39:24.679Z,-23924.00
2022-08-25T16:42:12.482Z,-23933.47
2022-08-25T16:44:59.715Z,-23932.75
2022-08-25T16:47:46.883Z,-23935.19
2022-08-25T16:50:34.980Z,-23944.16
2022-08-25T16:53:40.415Z,-23938.81
2022-08-25T16:56:28.041Z,-23935.19
2022-08-25T16:59:15.045Z,-23908.97
2022-08-25T17:02:02.090Z,-23912.38
2022-08-25T17:04:49.098Z,-23915.75
2022-08-25T17:07:36.938Z,-23919.63
2022-08-25T17:10:23.956Z,-23918.19
2022-08-25T17:13:13.283Z,-23924.75
2022-08-25T17:16:03.183Z,-23926.94
2022-08-25T17:18:50.329Z,-23927.66
2022-08-25T17:21:40.647Z,-23927.16
2022-08-25T17:24:32.131Z,-23921.09
2022-08-25T17:27:21.587Z,-23932.75
2022-08-25T17:30:09.514Z,-23930.31
2022-08-25T17:32:56.796Z,-23936.16
2022-08-25T17:35:46.540Z,-23933.25
2022-08-25T17:38:34.702Z,-23928.63
2022-08-25T17:41:21.846Z,-23922.81
2022-08-25T17:44:10.975Z,-23922.31
2022-08-25T17:46:57.994Z,-23929.13
2022-08-25T17:49:45.305Z,-23925.94
2022-08-25T17:52:32.265Z,-23920.13
2022-08-25T17:55:22.988Z,-23930.31
2022-08-25T17:58:12.058Z,-23932.03
2022-08-25T18:00:59.534Z,-23932.50
2022-08-25T18:03:47.232Z,-23922.31
2022-08-25T18:06:34.397Z,-23918.69
2022-08-25T18:09:21.328Z,-23927.41
2022-08-25T18:12:08.632Z,-23938.09
2022-08-25T18:14:58.989Z,-23941.97
2022-08-25T18:17:46.827Z,-23930.81
2022-08-25T18:20:33.998Z,-23926.69
2022-08-25T18:23:22.203Z,-23918.19
2022-08-25T18:26:12.978Z,-23917.22
2022-08-25T18:29:00.290Z,-23910.19
2022-08-25T18:31:48.731Z,-23903.38
2022-08-25T18:34:36.713Z,-23904.81
2022-08-25T18:37:42.742Z,-23905.56
2022-08-25T18:40:31.539Z,-23907.25
2022-08-25T18:43:21.333Z,-23900.69
2022-08-25T18:46:09.236Z,-23894.38
2022-08-25T18:48:57.006Z,-23897.56
2022-08-25T18:51:45.228Z,-23901.19
2022-08-25T18:54:32.171Z,-23902.16
2022-08-25T18:57:23.292Z,-23902.66
2022-08-25T19:00:20.497Z,-23907.00
2022-08-25T19:03:09.064Z,-23910.41
2022-08-25T19:05:57.596Z,-23911.63
2022-08-25T19:08:45.382Z,-23909.94
2022-08-25T19:11:32.381Z,-23910.19
2022-08-25T19:14:20.264Z,-23910.19
2022-08-25T19:17:07.830Z,-23908.00
2022-08-25T19:19:55.262Z,-23911.16
2022-08-25T19:22:42.407Z,-23908.47
2022-08-25T19:25:33.177Z,-23908.97
2022-08-25T19:28:21.972Z,-23910.91
2022-08-25T19:31:09.230Z,-23907.00
2022-08-25T19:33:59.147Z,-23905.31
2022-08-25T19:36:47.351Z,-23906.78
2022-08-25T19:39:39.244Z,-23904.81
2022-08-25T19:42:36.977Z,-23897.06
2022-08-25T19:45:26.305Z,-23901.66
2022-08-25T19:48:14.021Z,-23901.19
2022-08-25T19:51:01.371Z,-23902.16
2022-08-25T19:53:53.612Z,-23902.16
2022-08-25T19:56:43.689Z,-23902.16
2022-08-25T19:59:45.500Z,-23897.31
2022-08-25T20:02:32.525Z,-23905.06
2022-08-25T20:05:23.505Z,-23910.66
2022-08-25T20:08:11.087Z,-23899.75
2022-08-25T20:10:58.508Z,-23900.94
2022-08-25T20:13:45.444Z,-23895.84
2022-08-25T20:16:37.522Z,-23891.47
2022-08-25T20:19:24.506Z,-23893.44
2022-08-25T20:22:18.142Z,-23892.22
2022-08-25T20:25:13.851Z,-23884.69
2022-08-25T20:28:03.331Z,-23890.03
2022-08-25T20:30:50.392Z,-23884.19
2022-08-25T20:33:37.658Z,-23883.69
2022-08-25T20:36:26.823Z,-23886.13
2022-08-25T20:39:14.063Z,-23886.63
2022-08-25T20:42:01.406Z,-23884.19
2022-08-25T20:44:48.702Z,-23872.78
2022-08-25T20:47:36.439Z,-23864.78
2022-08-25T20:50:24.982Z,-23859.69
2022-08-25T20:53:13.605Z,-23861.38
2022-08-25T20:56:01.089Z,-23861.84
2022-08-25T20:58:48.699Z,-23859.19
2022-08-25T21:01:40.476Z,-23855.78
2022-08-25T21:04:32.031Z,-23854.56
2022-08-25T21:07:19.980Z,-23851.66
2022-08-25T21:10:10.238Z,-23859.19
2022-08-25T21:12:59.044Z,-23861.63
2022-08-25T21:15:48.720Z,-23861.84
2022-08-25T21:18:36.521Z,-23865.03
2022-08-25T21:21:24.255Z,-23865.97
2022-08-25T21:24:13.305Z,-23868.91
2022-08-25T21:27:00.347Z,-23865.97
2022-08-25T21:29:55.223Z,-23869.38
2022-08-25T21:32:53.233Z,-23870.38
2022-08-25T21:35:42.848Z,-23868.41
2022-08-25T21:38:30.058Z,-23867.44
2022-08-25T21:41:21.588Z,-23867.94
2022-08-25T21:44:09.720Z,-23861.84
2022-08-25T21:46:57.208Z,-23867.69
2022-08-25T21:49:44.222Z,-23867.19
2022-08-25T21:52:31.309Z,-23870.38
2022-08-25T21:55:18.713Z,-23874.25
2022-08-25T21:58:06.473Z,-23872.06
2022-08-25T22:00:53.516Z,-23875.69
2022-08-25T22:03:42.424Z,-23883.47
2022-08-25T22:06:35.622Z,-23888.56
2022-08-25T22:09:23.112Z,-23893.44
2022-08-25T22:12:10.708Z,-23894.38
2022-08-25T22:14:57.983Z,-23894.38
2022-08-25T22:17:45.732Z,-23897.56
2022-08-25T22:20:35.329Z,-23898.75
2022-08-25T22:23:28.420Z,-23898.28
2022-08-25T22:26:15.886Z,-23899.97
2022-08-25T22:29:07.960Z,-23900.69
2022-08-25T22:32:00.684Z,-23899.25
2022-08-25T22:34:49.448Z,-23898.75
2022-08-25T22:37:36.724Z,-23902.41
2022-08-25T22:40:24.354Z,-23901.91
2022-08-25T22:43:11.824Z,-23900.69
2022-08-25T22:46:03.743Z,-23900.94
2022-08-25T22:48:51.681Z,-23902.16
2022-08-25T22:51:39.507Z,-23904.09
2022-08-25T22:54:26.571Z,-23905.06
2022-08-25T22:57:13.569Z,-23906.53
2022-08-25T23:00:00.987Z,-23902.66
2022-08-25T23:02:51.045Z,-23903.63
2022-08-25T23:05:40.515Z,-23900.69
2022-08-25T23:08:39.300Z,-23903.13
2022-08-25T23:11:28.859Z,-23906.53
2022-08-25T23:14:16.011Z,-23905.56
2022-08-25T23:17:07.439Z,-23902.16
2022-08-25T23:19:54.886Z,-23904.81
2022-08-25T23:22:42.644Z,-23902.66
2022-08-25T23:25:29.727Z,-23900.69
2022-08-25T23:28:17.394Z,-23899.75
2022-08-25T23:31:11.373Z,-23901.66
2022-08-25T23:33:59.504Z,-23899.97
2022-08-25T23:36:49.779Z,-23899.97
2022-08-25T23:39:39.322Z,-23899.25
2022-08-25T23:42:26.435Z,-23900.69
2022-08-25T23:45:15.718Z,-23898.75
2022-08-25T23:48:02.700Z,-23898.50
2022-08-25T23:50:54.135Z,-23896.81
2022-08-25T23:53:41.380Z,-23896.34
2022-08-25T23:56:28.495Z,-23894.16
2022-08-25T23:59:16.128Z,-23893.44
